Ana Sayfa
METAR-TAF:

METAR-TAF

Havaalanları :

Mahajanga, Madagaskar

Enlem: 15-40S, Boylam: 046-21E, yükseklik: 26 m

Güncel hava durumu gözlemi

Rapor saat 17:00 UTC de 22 dakika önce yapıldı.
Rüzgar batı/kuzeybatıdan 2 kt
Sıcaklık 26°C
Nem 84%
Basınç 1014 hPa
Görüş mesafesi 10 km veya daha fazla
4000 ft yükseklikte az bulutlu

METAR: FMNM 231700Z 30002KT 9999 FEW040 26/23 Q1014

Saat: 20:22 (17:22 UTC)

Tahmin

Rapor saat 11:00 UTC de 6 saat ve 22 dakika önce yapıldı.
Ayın 23'si saat 12 UTC'den ayın 24'si saat 12 UTC'ye kadar geçerli Tahmin
Rüzgar batı/kuzeybatıdan 10 kt
Görüş mesafesi 10 km veya daha fazla
2300 ft yükseklikte az bulutlu
Dönüşüyor
ayın 23'si saat 18 UTC'den ayın 23'si saat 20 UTC'ye kadar
Rüzgar kuzeydan kt

TAF: FMNM 231100Z 2312/2412 30010KT 9999 FEW023 BECMG 2318/2320 00000KT

4.000'den fazla havaalanı için hava durumu gözlemleri ve tahminleri (METAR ve TAF raporları).

Kullanılabilir istasyonlar harita üzerinde sarı ve kırmızı noktalarla gösterilir.

İstasyonun adını görmek için fareyi noktanın üzerinde gezdirin.

Sonrasında hava gözlem ve tahminlerini görmek için tıklayın.

Haritayı değiştirmek için: yaklaştırmak için siyah artı işaretli yeşil düğmeye ve uzaklaştırmak için de eksi işaretli düğmeye hızla tıklayın; bitişik haritalar için yeşil okları kullanın.


METAR-TAF: